Elba, Idaho
Current Conditions -  °F | °C
As of 7:53 AM on Thursday 23 Oct 2014 (Local Time) from KBYI Reporting Station
Clear Clear  
Wind Chill: 50°   Ceiling: Unl
Heat Index: 50°   Visibility: 10mi
Dew Point: 29°   Wind: 10mph
Humidity: 44%   Direction: 200°SSW
Pressure: 30.05"   Gusts: NA
Location:  42.25°N, 113.56°W
Report Text: KBYI 231353Z AUTO 20009KT 10SM CLR 10/M02 A3005 RMK AO2 SLP165 T01001017
Loading
Personal Weather Stations






























Interactive Weather Map
Tropical Storm Tracking
New forecast layout! Learn more

10-Day Weather Forecast

Advertisements
Track Severe Weather on mobile